Time;durP1;ratioP1;P1;durP2;ratioP2;P2;SDS_P1;SDS_P2;PMS_P1;PMS_P2;Temp;Humidity;BMP_temperature;BMP_pressure;BME280_temperature;BME280_humidity;BME280_pressure;Samples;Min_cycle;Max_cycle;Signal;HPM_P1;HPM_P2
2022/05/29 00:01:04;;;;;;;0.22;0.20;;;16.80;50.30;18.80;93541.00;;;;10275431;28;45273;-64
2022/05/29 00:06:25;;;;;;;0.22;0.20;;;16.80;50.30;18.80;93546.00;;;;10274813;28;45194;-64
2022/05/29 00:11:48;;;;;;;0.22;0.20;;;16.80;50.40;18.80;93537.00;;;;10275017;28;45217;-64
2022/05/29 00:17:09;;;;;;;0.75;0.20;;;16.80;50.40;18.80;93536.00;;;;10274421;28;45426;-64
2022/05/29 00:22:32;;;;;;;0.30;0.20;;;16.80;50.30;18.80;93533.00;;;;10274569;28;45687;-65
2022/05/29 00:27:54;;;;;;;0.40;0.20;;;16.80;50.40;18.80;93513.00;;;;10274079;28;45236;-65
2022/05/29 00:33:15;;;;;;;0.43;0.20;;;16.70;50.30;18.80;93526.00;;;;10274290;28;45160;-64
2022/05/29 00:38:40;;;;;;;0.22;0.13;;;16.70;50.30;18.80;93504.00;;;;10273859;28;45176;-64
2022/05/29 00:44:13;;;;;;;0.20;0.20;;;16.70;50.40;18.80;93519.00;;;;10273718;28;45198;-64
2022/05/29 00:49:37;;;;;;;0.65;0.17;;;16.70;50.30;18.70;93500.00;;;;10273514;28;45099;-64
2022/05/29 00:55:03;;;;;;;0.50;0.28;;;16.70;50.40;18.70;93503.00;;;;10273784;28;45938;-65
2022/05/29 01:00:28;;;;;;;0.35;0.10;;;16.70;50.40;18.70;93482.00;;;;10268726;28;45806;-65
2022/05/29 01:05:49;;;;;;;0.20;0.20;;;16.70;50.40;18.70;93472.00;;;;10270112;28;45594;-65
2022/05/29 01:11:24;;;;;;;0.68;0.30;;;16.70;50.40;18.70;93472.00;;;;10272771;28;45302;-64
2022/05/29 01:16:57;;;;;;;0.85;0.20;;;16.70;51.00;18.70;93449.00;;;;10272948;28;45284;-64
2022/05/29 01:22:42;;;;;;;0.40;0.28;;;16.70;50.30;18.70;93464.00;;;;10296433;23;45273;-65
2022/05/29 01:28:15;;;;;;;1.30;0.10;;;16.70;50.30;18.70;93443.00;;;;10273152;28;45094;-65
2022/05/29 01:33:43;;;;;;;0.35;0.20;;;16.70;50.30;18.70;93429.00;;;;10273184;28;45929;-65
2022/05/29 01:39:10;;;;;;;0.30;0.20;;;16.70;50.30;18.70;93425.00;;;;10271887;28;45135;-65
2022/05/29 01:44:41;;;;;;;0.68;0.20;;;16.70;50.30;18.70;93402.00;;;;10272871;28;45754;-64
2022/05/29 01:50:08;;;;;;;1.58;0.20;;;16.70;50.30;18.70;93422.00;;;;10271511;28;45160;-64
2022/05/29 01:55:34;;;;;;;0.30;0.20;;;16.70;50.30;18.70;93393.00;;;;10272032;28;45234;-65
2022/05/29 02:01:00;;;;;;;0.98;0.20;;;16.70;50.30;18.70;93407.00;;;;10271651;28;45153;-65
2022/05/29 02:06:26;;;;;;;0.30;0.20;;;16.70;51.00;18.70;93400.00;;;;10271560;28;45184;-65
2022/05/29 02:11:50;;;;;;;0.97;0.20;;;16.70;50.30;18.70;93395.00;;;;10273669;28;45281;-64
2022/05/29 02:17:18;;;;;;;0.10;0.10;;;16.70;50.30;18.70;93388.00;;;;10279101;28;45194;-65
2022/05/29 02:22:40;;;;;;;0.15;0.10;;;16.60;50.20;18.70;93376.00;;;;10277493;28;45249;-65
2022/05/29 02:28:07;;;;;;;0.22;0.10;;;16.60;50.20;18.70;93371.00;;;;10277577;28;45749;-64
2022/05/29 02:33:38;;;;;;;0.23;0.20;;;16.70;50.20;18.70;93372.00;;;;10277657;28;45280;-65
2022/05/29 02:39:13;;;;;;;0.20;0.10;;;16.60;50.20;18.60;93361.00;;;;10277696;28;45386;-65
2022/05/29 02:44:43;;;;;;;0.17;0.15;;;16.60;50.20;18.70;93341.00;;;;10278097;28;45101;-65
2022/05/29 02:50:26;;;;;;;0.20;0.20;;;16.60;50.20;18.60;93341.00;;;;10277160;28;45198;-65
2022/05/29 02:55:47;;;;;;;0.10;0.10;;;16.70;50.30;18.70;93336.00;;;;10277290;28;45176;-63
2022/05/29 03:01:19;;;;;;;0.10;0.10;;;16.60;50.20;18.60;93345.00;;;;10277100;28;45172;-64
2022/05/29 03:06:52;;;;;;;0.32;0.10;;;16.60;50.20;18.60;93337.00;;;;10277172;28;45186;-64
2022/05/29 03:12:26;;;;;;;0.25;0.10;;;16.60;50.20;18.60;93341.00;;;;10276573;28;45241;-64
2022/05/29 03:18:00;;;;;;;0.38;0.20;;;16.60;50.20;18.60;93323.00;;;;10276814;28;45337;-65
2022/05/29 03:23:32;;;;;;;0.32;0.13;;;16.60;50.20;18.60;93320.00;;;;10275238;28;45705;-65
2022/05/29 03:29:04;;;;;;;0.10;0.10;;;16.60;50.20;18.60;93333.00;;;;10276257;28;45736;-64
2022/05/29 03:34:24;;;;;;;0.43;0.20;;;16.60;50.20;18.60;93327.00;;;;10276285;28;45158;-64
2022/05/29 03:39:47;;;;;;;0.20;0.10;;;16.60;50.20;18.60;93311.00;;;;10275980;28;45463;-65
2022/05/29 03:45:09;;;;;;;0.20;0.17;;;16.60;50.20;18.60;93326.00;;;;10276301;28;45039;-65
2022/05/29 03:50:30;;;;;;;0.20;0.10;;;16.60;50.20;18.60;93310.00;;;;10276386;28;45654;-65
2022/05/29 03:55:51;;;;;;;0.30;0.10;;;16.60;50.20;18.60;93326.00;;;;10276517;28;45109;-65
2022/05/29 04:01:12;;;;;;;1.23;0.30;;;16.60;50.20;18.60;93331.00;;;;10276133;28;45194;-64
2022/05/29 04:06:34;;;;;;;0.10;0.10;;;16.60;50.20;18.60;93325.00;;;;10275907;28;45178;-64
2022/05/29 04:12:05;;;;;;;0.20;0.10;;;16.60;50.20;18.60;93323.00;;;;10275827;28;45165;-64
2022/05/29 04:17:26;;;;;;;0.43;0.20;;;16.60;50.20;18.60;93327.00;;;;10275553;28;45213;-65
2022/05/29 04:22:47;;;;;;;0.10;0.10;;;16.60;50.20;18.60;93323.00;;;;10275479;28;45097;-64
2022/05/29 04:28:08;;;;;;;0.70;0.30;;;16.50;50.10;18.60;93313.00;;;;10275011;28;45677;-65
2022/05/29 04:33:29;;;;;;;0.50;0.17;;;16.50;50.10;18.60;93306.00;;;;10274889;28;45725;-65
2022/05/29 04:38:49;;;;;;;0.10;0.10;;;16.50;50.10;18.60;93323.00;;;;10274883;28;45675;-64
2022/05/29 04:44:11;;;;;;;0.15;0.13;;;16.50;50.10;18.50;93308.00;;;;10275067;28;45221;-64
2022/05/29 04:49:32;;;;;;;0.20;0.10;;;16.60;50.20;18.60;93320.00;;;;10274423;28;45259;-65
2022/05/29 04:54:53;;;;;;;0.20;0.03;;;16.60;50.20;18.50;93325.00;;;;10274813;28;46066;-64
2022/05/29 05:00:17;;;;;;;0.10;0.10;;;16.50;50.10;18.60;93323.00;;;;10273912;28;45276;-64
2022/05/29 05:05:37;;;;;;;0.10;0.10;;;16.50;50.10;18.50;93326.00;;;;10274288;28;45742;-64
2022/05/29 05:10:58;;;;;;;0.20;0.10;;;16.60;50.20;18.60;93329.00;;;;10273889;28;45998;-64
2022/05/29 05:16:20;;;;;;;0.68;0.10;;;16.50;50.10;18.50;93330.00;;;;10274214;28;45170;-64
2022/05/29 05:21:41;;;;;;;0.20;0.10;;;16.50;50.10;18.50;93325.00;;;;10273621;28;45650;-64
2022/05/29 05:27:01;;;;;;;0.43;0.20;;;16.50;50.10;18.50;93314.00;;;;10273341;28;45174;-63
2022/05/29 05:32:23;;;;;;;0.30;0.10;;;16.50;50.10;18.60;93325.00;;;;10273356;28;45228;-64
2022/05/29 05:37:44;;;;;;;0.10;0.10;;;16.50;50.10;18.50;93313.00;;;;10273535;28;45857;-64
2022/05/29 05:43:05;;;;;;;0.30;0.10;;;16.50;50.10;18.50;93315.00;;;;10273415;28;45167;-64
2022/05/29 05:48:30;;;;;;;0.10;0.10;;;16.50;50.10;18.50;93320.00;;;;10272009;28;45268;-65
2022/05/29 05:53:50;;;;;;;0.50;0.20;;;16.50;50.10;18.60;93328.00;;;;10272844;28;45258;-65
2022/05/29 05:59:12;;;;;;;0.17;0.17;;;16.60;50.10;18.60;93327.00;;;;10273283;28;45018;-64
2022/05/29 06:04:34;;;;;;;0.22;0.10;;;16.50;50.10;18.60;93332.00;;;;10252290;28;45369;-65
2022/05/29 06:09:54;;;;;;;0.08;0.08;;;16.50;50.10;18.60;93331.00;;;;10258377;28;45216;-64
2022/05/29 06:15:15;;;;;;;0.32;0.10;;;16.50;50.00;18.60;93326.00;;;;10238661;28;45289;-64
2022/05/29 06:20:37;;;;;;;0.20;0.10;;;16.50;50.10;18.60;93330.00;;;;10236986;28;45099;-64
2022/05/29 06:26:01;;;;;;;0.00;0.00;;;16.50;50.00;18.60;93318.00;;;;10231838;28;45151;-65
2022/05/29 06:31:22;;;;;;;0.17;0.10;;;16.50;50.00;18.60;93339.00;;;;10232094;28;45698;-64
2022/05/29 06:36:44;;;;;;;0.10;0.10;;;16.50;50.00;18.60;93322.00;;;;10273060;28;45299;-64
2022/05/29 06:42:07;;;;;;;0.35;0.20;;;16.50;50.10;18.60;93337.00;;;;10287246;28;45531;-64
2022/05/29 06:47:28;;;;;;;0.10;0.10;;;16.50;50.00;18.50;93323.00;;;;10269223;28;45398;-65
2022/05/29 06:52:50;;;;;;;0.50;0.10;;;16.50;50.10;18.60;93331.00;;;;10271952;28;45193;-65
2022/05/29 06:58:11;;;;;;;0.10;0.10;;;16.50;50.10;18.50;93323.00;;;;10273941;28;45251;-65
2022/05/29 07:09:11;;;;;;;1.15;0.40;;;16.00;48.30;18.30;93346.00;;;;10277866;28;45236;-65
2022/05/29 07:14:33;;;;;;;1.20;0.30;;;16.20;48.50;18.40;93327.00;;;;10278685;28;45776;-65
2022/05/29 07:19:54;;;;;;;1.73;0.30;;;16.30;48.40;18.40;93332.00;;;;10277927;28;45279;-65
2022/05/29 07:25:16;;;;;;;1.02;0.40;;;16.40;48.40;18.40;93339.00;;;;10278140;28;45165;-65
2022/05/29 07:30:37;;;;;;;0.65;0.40;;;16.40;48.60;18.50;93347.00;;;;10277627;28;45186;-65
2022/05/29 07:35:59;;;;;;;1.00;0.30;;;16.40;48.50;18.50;93338.00;;;;10277604;28;45164;-66
2022/05/29 07:47:00;;;;;;;0.60;0.32;;;16.40;48.70;18.50;93343.00;;;;10277278;28;45317;-62
2022/05/29 07:52:20;;;;;;;0.77;0.30;;;16.50;48.80;18.60;93348.00;;;;10272940;28;45107;-61
2022/05/29 07:57:42;;;;;;;2.97;0.43;;;16.50;48.70;18.60;93360.00;;;;10273216;28;45192;-60
2022/05/29 08:03:04;;;;;;;4.20;0.55;;;16.60;48.90;18.70;93337.00;;;;10276423;28;45775;-61
2022/05/29 08:08:28;;;;;;;2.10;0.63;;;16.60;49.50;18.70;93355.00;;;;10274223;28;45777;-65
2022/05/29 08:13:51;;;;;;;4.30;0.70;;;16.70;49.50;18.70;93361.00;;;;10276333;28;45412;-63
2022/05/29 08:19:12;;;;;;;2.00;0.50;;;16.70;49.50;18.70;93362.00;;;;10274671;28;45162;-62
2022/05/29 08:36:00;;;;;;;1.30;0.47;;;16.80;48.30;18.80;93345.00;;;;10274832;28;45737;-60
2022/05/29 08:41:33;;;;;;;0.93;0.32;;;16.80;48.90;18.80;93338.00;;;;10274500;28;45099;-61
2022/05/29 08:47:00;;;;;;;1.35;0.50;;;16.80;48.30;18.80;93333.00;;;;10275133;28;45125;-61
2022/05/29 08:52:49;;;;;;;1.85;0.50;;;16.80;48.50;18.80;93341.00;;;;10274977;28;45844;-62
2022/05/29 08:58:25;;;;;;;1.58;0.50;;;16.80;48.00;18.90;93331.00;;;;10274248;28;45143;-60
2022/05/29 09:04:01;;;;;;;2.10;0.63;;;16.80;47.70;18.90;93332.00;;;;10273836;28;45825;-61
2022/05/29 09:09:30;;;;;;;1.67;0.50;;;16.90;47.50;18.90;93339.00;;;;10273637;28;45757;-60
2022/05/29 09:14:53;;;;;;;1.55;0.40;;;16.90;47.10;18.90;93331.00;;;;10273668;28;45183;-61
2022/05/29 09:20:28;;;;;;;3.97;0.68;;;16.90;47.70;18.90;93325.00;;;;10272430;28;45337;-62
2022/05/29 09:25:50;;;;;;;2.28;0.50;;;16.90;47.30;18.90;93334.00;;;;10272988;28;45224;-62
2022/05/29 09:31:17;;;;;;;3.63;0.60;;;16.90;47.90;18.90;93351.00;;;;10273436;28;45245;-61
2022/05/29 09:36:52;;;;;;;2.33;0.60;;;16.90;47.90;18.90;93352.00;;;;10272801;28;45874;-62
2022/05/29 09:42:20;;;;;;;1.02;0.50;;;16.90;48.70;19.00;93352.00;;;;10271867;28;45202;-64
2022/05/29 09:53:26;;;;;;;1.58;0.35;;;17.00;48.00;19.00;93360.00;;;;10272307;28;45191;-62
2022/05/29 09:58:52;;;;;;;2.75;0.80;;;17.00;48.10;18.90;93353.00;;;;10272532;28;45179;-62
2022/05/29 10:04:14;;;;;;;3.28;1.20;;;16.90;46.50;18.80;93357.00;;;;10273611;28;46130;-61
2022/05/29 10:09:58;;;;;;;2.60;1.00;;;16.80;45.40;18.80;93372.00;;;;10272489;28;46326;-63
2022/05/29 10:15:40;;;;;;;2.45;0.98;;;16.70;44.30;18.60;93370.00;;;;10273019;28;45927;-62
2022/05/29 10:21:15;;;;;;;1.67;0.73;;;16.70;44.00;18.70;93390.00;;;;10270624;28;45238;-61
2022/05/29 10:26:38;;;;;;;1.08;0.60;;;16.60;44.10;18.80;93374.00;;;;10272325;28;45164;-60
2022/05/29 10:32:01;;;;;;;1.48;0.70;;;16.70;45.00;18.90;93373.00;;;;10273041;28;45254;-60
2022/05/29 10:37:27;;;;;;;1.48;0.70;;;16.80;45.40;18.90;93365.00;;;;10276549;28;45150;-61
2022/05/29 10:42:52;;;;;;;1.55;0.60;;;16.80;45.80;18.90;93359.00;;;;10278494;28;45274;-62
2022/05/29 10:48:59;;;;;;;1.83;0.50;;;16.90;46.10;18.90;93390.00;;;;10278350;28;45917;-59
2022/05/29 10:54:35;;;;;;;0.88;0.45;;;16.80;46.20;18.90;93390.00;;;;10278964;28;45513;-59
2022/05/29 11:00:12;;;;;;;0.80;0.60;;;16.80;46.40;18.90;93387.00;;;;10277762;28;45828;-59
2022/05/29 11:06:03;;;;;;;0.90;0.50;;;16.80;46.60;18.80;93338.00;;;;10277694;28;45209;-60
2022/05/29 11:11:38;;;;;;;0.90;0.40;;;16.80;46.70;18.80;93354.00;;;;10278247;28;45203;-60
2022/05/29 11:17:08;;;;;;;1.23;0.50;;;16.80;46.70;18.80;93356.00;;;;10276864;28;45140;-60
2022/05/29 11:22:39;;;;;;;0.90;0.50;;;16.80;46.90;18.80;93340.00;;;;10277526;28;45255;-59
2022/05/29 11:28:36;;;;;;;1.08;0.60;;;16.80;46.90;18.90;93347.00;;;;10276318;28;45799;-60
2022/05/29 11:34:24;;;;;;;1.80;0.40;;;16.80;46.90;18.90;93346.00;;;;10277334;28;45194;-60
2022/05/29 11:39:48;;;;;;;1.55;0.60;;;16.80;47.10;18.90;93332.00;;;;10276908;28;45317;-61
2022/05/29 11:45:17;;;;;;;1.02;0.40;;;16.80;47.20;18.90;93341.00;;;;10275663;28;45315;-61
2022/05/29 11:56:35;;;;;;;1.27;0.50;;;16.80;47.20;18.90;93344.00;;;;10276443;28;45171;-60
2022/05/29 12:02:01;;;;;;;1.08;0.55;;;16.80;47.30;18.90;93334.00;;;;10276377;28;45140;-60
2022/05/29 12:07:32;;;;;;;0.70;0.50;;;16.80;47.30;18.90;93336.00;;;;10276256;28;45085;-61
2022/05/29 12:12:59;;;;;;;0.50;0.45;;;16.80;47.40;18.80;93347.00;;;;10276393;28;45403;-61
2022/05/29 12:18:21;;;;;;;0.57;0.40;;;16.80;47.50;18.80;93333.00;;;;10275696;28;45094;-60
2022/05/29 12:23:48;;;;;;;0.38;0.32;;;16.80;47.50;18.90;93333.00;;;;10275791;28;45254;-60
2022/05/29 12:29:14;;;;;;;0.43;0.40;;;16.80;47.50;18.90;93331.00;;;;10275455;28;45312;-60
2022/05/29 12:34:50;;;;;;;0.60;0.40;;;16.80;47.50;18.90;93321.00;;;;10275609;28;46015;-61
2022/05/29 12:40:51;;;;;;;1.13;0.50;;;16.80;47.60;18.90;93316.00;;;;10275123;28;45073;-61
2022/05/29 12:46:32;;;;;;;2.45;0.60;;;16.80;47.60;18.90;93323.00;;;;10275206;28;45361;-60
2022/05/29 12:52:22;;;;;;;0.98;0.40;;;16.80;47.60;18.90;93329.00;;;;10274714;28;45347;-61
2022/05/29 12:58:35;;;;;;;1.48;0.57;;;16.90;47.60;18.90;93336.00;;;;10273019;28;45118;-61
2022/05/29 13:04:47;;;;;;;0.77;0.50;;;16.90;47.60;18.90;93314.00;;;;10273554;28;45194;-61
2022/05/29 13:10:15;;;;;;;0.55;0.40;;;16.90;47.70;18.90;93311.00;;;;10274365;28;46101;-60
2022/05/29 13:15:38;;;;;;;0.65;0.30;;;16.80;47.70;18.90;93324.00;;;;10273819;28;45217;-61
2022/05/29 13:21:11;;;;;;;1.00;0.40;;;16.80;47.70;18.90;93334.00;;;;10273831;28;45186;-60
2022/05/29 13:26:32;;;;;;;0.93;0.40;;;16.80;47.80;18.90;93309.00;;;;10273101;28;45193;-61
2022/05/29 13:32:21;;;;;;;1.17;0.32;;;16.90;47.90;19.00;93321.00;;;;10273558;28;45415;-65
2022/05/29 13:37:46;;;;;;;3.38;0.20;;;16.90;47.80;19.00;93319.00;;;;10268873;28;45119;-60
2022/05/29 13:43:37;;;;;;;1.02;0.30;;;16.90;47.90;19.00;93303.00;;;;10272395;28;45274;-61
2022/05/29 13:49:07;;;;;;;0.57;0.40;;;17.00;47.70;19.00;93315.00;;;;10269807;28;45164;-61
2022/05/29 13:54:31;;;;;;;0.55;0.30;;;17.00;47.60;19.00;93299.00;;;;10269802;28;45807;-60
2022/05/29 14:05:38;;;;;;;0.50;0.30;;;17.00;47.60;19.10;93296.00;;;;10267644;28;45890;-61
2022/05/29 14:11:16;;;;;;;0.85;0.32;;;17.00;47.70;19.10;93300.00;;;;10278380;28;45241;-61
2022/05/29 14:16:42;;;;;;;0.60;0.30;;;17.10;47.40;19.10;93309.00;;;;10278812;28;45885;-61
2022/05/29 14:22:36;;;;;;;0.60;0.20;;;17.10;47.50;19.10;93304.00;;;;10278332;28;45101;-61
2022/05/29 14:28:14;;;;;;;0.95;0.40;;;17.10;47.40;19.10;93288.00;;;;10277957;28;45173;-60
2022/05/29 14:34:33;;;;;;;1.38;0.43;;;17.10;47.60;19.20;93304.00;;;;10279131;28;45100;-60
2022/05/29 14:40:04;;;;;;;0.60;0.40;;;17.10;47.30;19.10;93299.00;;;;10268454;28;45704;-64
2022/05/29 14:45:27;;;;;;;0.52;0.43;;;17.10;47.30;19.20;93294.00;;;;10278459;28;45150;-59
2022/05/29 14:50:54;;;;;;;0.57;0.32;;;17.10;47.40;19.20;93297.00;;;;10277709;28;45157;-61
2022/05/29 14:56:33;;;;;;;1.13;0.50;;;17.20;47.70;19.20;93296.00;;;;10277632;28;45214;-61
2022/05/29 15:01:57;;;;;;;1.85;0.50;;;17.20;47.80;19.20;93286.00;;;;10273768;28;45345;-61
2022/05/29 15:13:09;;;;;;;1.30;0.47;;;17.20;47.80;19.20;93278.00;;;;10261559;28;45173;-58
2022/05/29 15:18:33;;;;;;;1.20;0.40;;;17.10;47.20;19.10;93270.00;;;;10274886;28;45135;-61
2022/05/29 15:24:15;;;;;;;2.58;0.60;;;17.10;47.60;19.20;93269.00;;;;10277259;28;45103;-61
2022/05/29 15:29:39;;;;;;;0.93;0.32;;;17.10;47.50;19.20;93290.00;;;;10276310;28;45169;-61
2022/05/29 15:35:16;;;;;;;1.80;0.40;;;17.20;47.20;19.20;93281.00;;;;10276698;28;45662;-61
2022/05/29 15:40:52;;;;;;;0.68;0.40;;;17.20;47.30;19.20;93280.00;;;;10275715;28;45353;-62
2022/05/29 15:46:53;;;;;;;2.42;0.50;;;17.20;47.40;19.20;93273.00;;;;10277516;28;45131;-68
2022/05/29 15:52:27;;;;;;;1.25;0.50;;;17.20;47.70;19.30;93265.00;;;;10279968;28;45192;-72
2022/05/29 15:57:49;;;;;;;2.17;0.50;;;17.20;47.40;19.30;93263.00;;;;10275474;28;45339;-61
2022/05/29 16:03:14;;;;;;;0.70;0.38;;;17.20;47.50;19.30;93260.00;;;;10275623;28;45105;-61
2022/05/29 16:08:37;;;;;;;1.05;0.40;;;17.20;47.30;19.30;93263.00;;;;10270528;28;45166;-62
2022/05/29 16:13:59;;;;;;;1.33;0.38;;;17.30;47.60;19.30;93263.00;;;;10273825;28;45130;-62
2022/05/29 16:19:43;;;;;;;2.08;0.50;;;17.20;47.50;19.30;93252.00;;;;10272232;28;45114;-63
2022/05/29 16:25:21;;;;;;;1.27;0.57;;;17.20;47.60;19.30;93262.00;;;;10274493;28;45197;-62
2022/05/29 16:30:51;;;;;;;0.75;0.43;;;17.20;47.50;19.30;93259.00;;;;10273077;28;45133;-61
2022/05/29 16:36:25;;;;;;;0.98;0.50;;;17.20;47.30;19.20;93252.00;;;;10272508;28;45256;-62
2022/05/29 16:53:20;;;;;;;1.38;0.50;;;17.30;47.20;19.40;93257.00;;;;10245003;28;45670;-62
2022/05/29 16:58:47;;;;;;;0.73;0.60;;;17.30;46.90;19.40;93254.00;;;;10272836;28;45156;-60
2022/05/29 17:04:31;;;;;;;0.88;0.40;;;17.30;46.90;19.30;93250.00;;;;10273318;28;45295;-61
2022/05/29 17:10:08;;;;;;;1.05;0.50;;;17.30;46.60;19.30;93251.00;;;;10271925;28;45754;-61
2022/05/29 17:15:32;;;;;;;0.52;0.40;;;17.30;46.30;19.30;93259.00;;;;10272995;28;45246;-61
2022/05/29 17:20:58;;;;;;;0.80;0.50;;;17.20;46.60;19.30;93250.00;;;;10271121;28;45347;-61
2022/05/29 17:26:39;;;;;;;2.15;0.82;;;17.20;46.30;19.30;93249.00;;;;10270551;28;45695;-61
2022/05/29 17:32:15;;;;;;;0.77;0.50;;;17.20;46.30;19.20;93239.00;;;;10273969;28;46159;-61
2022/05/29 17:38:04;;;;;;;0.50;0.40;;;17.20;46.30;19.20;93263.00;;;;10272496;28;45231;-61
2022/05/29 17:43:30;;;;;;;0.47;0.40;;;17.10;46.30;19.20;93256.00;;;;10272904;28;45177;-61
2022/05/29 17:49:14;;;;;;;0.60;0.40;;;17.10;46.40;19.20;93253.00;;;;10270878;28;45127;-61
2022/05/29 17:54:47;;;;;;;0.85;0.45;;;17.10;46.40;19.20;93259.00;;;;10232861;28;45326;-61
2022/05/29 18:00:17;;;;;;;0.60;0.38;;;17.10;46.50;19.10;93259.00;;;;10253546;28;45184;-61
2022/05/29 18:11:27;;;;;;;0.63;0.40;;;17.00;46.50;19.10;93243.00;;;;10270967;28;45245;-61
2022/05/29 18:16:54;;;;;;;2.00;0.60;;;17.00;46.50;19.10;93260.00;;;;10271372;28;45169;-61
2022/05/29 18:22:16;;;;;;;0.65;0.38;;;17.00;46.50;19.10;93254.00;;;;10271379;28;45267;-61
2022/05/29 18:27:39;;;;;;;0.68;0.45;;;16.90;46.50;19.00;93246.00;;;;10270412;28;45199;-61
2022/05/29 18:33:03;;;;;;;0.73;0.38;;;16.90;46.50;19.00;93264.00;;;;10271061;28;45725;-61
2022/05/29 18:38:27;;;;;;;0.80;0.47;;;16.90;46.50;19.00;93257.00;;;;10270138;28;45153;-61
2022/05/29 18:43:52;;;;;;;0.90;0.57;;;16.90;46.50;19.00;93270.00;;;;10271268;28;45223;-61
2022/05/29 18:49:18;;;;;;;1.33;0.47;;;16.90;46.70;19.00;93270.00;;;;10269495;28;45130;-61
2022/05/29 18:54:39;;;;;;;1.08;0.43;;;16.90;46.70;18.90;93272.00;;;;10272999;28;45264;-61
2022/05/29 19:00:04;;;;;;;0.88;0.40;;;16.90;46.70;18.90;93257.00;;;;10276577;28;45706;-61
2022/05/29 19:05:28;;;;;;;1.00;0.43;;;16.80;46.70;18.90;93266.00;;;;10277012;28;45138;-61
2022/05/29 19:10:52;;;;;;;0.52;0.30;;;16.80;46.70;18.90;93280.00;;;;10277219;28;45222;-61
2022/05/29 19:16:16;;;;;;;0.93;0.40;;;16.80;46.80;18.90;93268.00;;;;10276636;28;45725;-61
2022/05/29 19:21:38;;;;;;;0.70;0.38;;;16.80;46.80;18.90;93276.00;;;;10276475;28;45717;-61
2022/05/29 19:26:59;;;;;;;0.88;0.30;;;16.80;46.80;18.80;93274.00;;;;10275599;28;45682;-61
2022/05/29 19:32:19;;;;;;;0.50;0.30;;;16.80;46.90;18.90;93281.00;;;;10275898;28;45209;-61
2022/05/29 19:37:43;;;;;;;1.10;0.40;;;16.80;46.80;18.90;93270.00;;;;10275758;28;45124;-61
2022/05/29 19:43:04;;;;;;;1.77;0.60;;;16.80;46.80;18.90;93277.00;;;;10275169;28;45896;-61
2022/05/29 19:48:25;;;;;;;0.90;0.40;;;16.80;46.80;18.90;93259.00;;;;10275974;28;45094;-61
2022/05/29 19:53:48;;;;;;;0.95;0.40;;;16.80;46.70;18.90;93273.00;;;;10276217;28;45194;-61
2022/05/29 19:59:08;;;;;;;0.40;0.38;;;16.80;46.70;18.80;93282.00;;;;10270408;28;45197;-61
2022/05/29 20:04:31;;;;;;;0.80;0.40;;;16.80;46.70;18.80;93277.00;;;;10235276;28;45194;-61
2022/05/29 20:09:53;;;;;;;0.57;0.30;;;16.70;46.70;18.80;93274.00;;;;10235277;28;45114;-61
2022/05/29 20:15:14;;;;;;;1.05;0.40;;;16.70;46.70;18.80;93274.00;;;;10234471;28;45711;-60
2022/05/29 20:20:36;;;;;;;0.60;0.40;;;16.70;46.70;18.80;93274.00;;;;10230711;28;45854;-61
2022/05/29 20:25:58;;;;;;;0.90;0.40;;;16.70;46.70;18.80;93268.00;;;;10234913;28;45239;-60
2022/05/29 20:31:23;;;;;;;0.85;0.50;;;16.70;46.70;18.80;93278.00;;;;10235184;28;45170;-61
2022/05/29 20:36:46;;;;;;;0.68;0.40;;;16.70;46.70;18.80;93267.00;;;;10234916;28;45130;-61
2022/05/29 20:42:08;;;;;;;0.30;0.30;;;16.70;46.80;18.70;93275.00;;;;10235115;28;45542;-60
2022/05/29 20:47:30;;;;;;;0.82;0.20;;;16.70;46.80;18.70;93265.00;;;;10234960;28;45385;-60
2022/05/29 20:52:51;;;;;;;1.10;0.68;;;16.70;46.80;18.70;93270.00;;;;10234830;28;45080;-61
2022/05/29 20:58:13;;;;;;;0.73;0.32;;;16.60;46.80;18.70;93264.00;;;;10234455;28;45107;-61
2022/05/29 21:03:34;;;;;;;0.85;0.40;;;16.60;46.80;18.70;93269.00;;;;10234442;28;45741;-61
2022/05/29 21:08:54;;;;;;;0.47;0.35;;;16.60;46.80;18.70;93248.00;;;;10233774;28;45683;-60
2022/05/29 21:14:17;;;;;;;0.40;0.30;;;16.60;46.80;18.70;93264.00;;;;10234694;28;45968;-60
2022/05/29 21:19:37;;;;;;;0.75;0.40;;;16.60;46.80;18.70;93259.00;;;;10232679;28;45149;-61
2022/05/29 21:25:01;;;;;;;0.68;0.30;;;16.60;46.80;18.70;93258.00;;;;10233231;28;45353;-61
2022/05/29 21:30:23;;;;;;;0.20;0.20;;;16.60;46.90;18.70;93246.00;;;;10232619;28;45118;-61
2022/05/29 21:35:44;;;;;;;0.80;0.40;;;16.60;46.90;18.70;93245.00;;;;10232212;28;45225;-61
2022/05/29 21:41:04;;;;;;;0.57;0.40;;;16.60;46.80;18.70;93248.00;;;;10232338;28;45862;-61
2022/05/29 21:46:26;;;;;;;0.55;0.30;;;16.60;46.80;18.70;93254.00;;;;10232116;28;45834;-61
2022/05/29 21:51:47;;;;;;;0.80;0.20;;;16.60;46.80;18.70;93266.00;;;;10232665;28;45191;-61
2022/05/29 21:57:08;;;;;;;0.70;0.30;;;16.60;46.80;18.70;93269.00;;;;10232103;28;45146;-61
2022/05/29 22:02:29;;;;;;;0.38;0.35;;;16.60;46.80;18.60;93247.00;;;;10231747;28;45190;-61
2022/05/29 22:07:50;;;;;;;0.85;0.32;;;16.60;46.80;18.60;93251.00;;;;10231475;28;45198;-61
2022/05/29 22:13:11;;;;;;;0.22;0.20;;;16.60;46.90;18.60;93246.00;;;;10231955;28;45221;-61
2022/05/29 22:18:33;;;;;;;0.95;0.30;;;16.50;46.80;18.60;93237.00;;;;10231103;28;45403;-61
2022/05/29 22:23:56;;;;;;;0.60;0.32;;;16.50;46.80;18.60;93236.00;;;;10231329;28;45111;-61
2022/05/29 22:29:18;;;;;;;0.38;0.20;;;16.60;46.90;18.60;93243.00;;;;10233653;28;45218;-61
2022/05/29 22:34:46;;;;;;;0.73;0.28;;;16.50;46.80;18.60;93245.00;;;;10238083;28;45099;-61
2022/05/29 22:40:12;;;;;;;0.70;0.30;;;16.50;46.80;18.60;93236.00;;;;10237596;28;45219;-61
2022/05/29 22:45:34;;;;;;;0.30;0.20;;;16.50;46.80;18.60;93247.00;;;;10237770;28;45811;-61
2022/05/29 22:51:01;;;;;;;0.43;0.30;;;16.50;46.80;18.60;93230.00;;;;10238082;28;45439;-61
2022/05/29 22:56:21;;;;;;;0.63;0.30;;;16.50;46.80;18.50;93215.00;;;;10237276;28;45183;-61
2022/05/29 23:01:47;;;;;;;0.47;0.30;;;16.50;46.80;18.50;93227.00;;;;10237429;28;45161;-61
2022/05/29 23:07:12;;;;;;;1.03;0.30;;;16.50;46.90;18.60;93226.00;;;;10236962;28;45198;-61
2022/05/29 23:12:33;;;;;;;0.50;0.30;;;16.50;46.90;18.50;93200.00;;;;10237136;28;45094;-60
2022/05/29 23:17:53;;;;;;;0.70;0.40;;;16.50;46.90;18.50;93206.00;;;;10236236;28;45397;-61
2022/05/29 23:23:15;;;;;;;0.22;0.22;;;16.50;46.90;18.50;93209.00;;;;10236368;28;45151;-61
2022/05/29 23:28:36;;;;;;;0.30;0.30;;;16.40;46.90;18.50;93206.00;;;;10236278;28;45064;-61
2022/05/29 23:33:57;;;;;;;0.65;0.35;;;16.40;46.90;18.50;93191.00;;;;10236658;28;45139;-61
2022/05/29 23:39:19;;;;;;;0.20;0.20;;;16.40;46.90;18.50;93190.00;;;;10236038;28;45147;-61
2022/05/29 23:44:39;;;;;;;0.32;0.22;;;16.40;46.90;18.50;93175.00;;;;10236162;28;45190;-61
2022/05/29 23:50:01;;;;;;;0.30;0.20;;;16.40;46.90;18.50;93184.00;;;;10235677;28;45407;-61
2022/05/29 23:55:25;;;;;;;0.50;0.28;;;16.50;46.90;18.50;93189.00;;;;10235866;28;45056;-61
